Česky Dansk Deutsch English Español Suomi Français Magyar Italiano Nederlands norsk Polski Português svenska Türkçe

 

Het Weer

Skikda (Algeria)

13:00, 25 mei 2015 (GMT)

NWNNE
WE
SWSSE
Home            
Skikda Annaba Constantine Jijel Achouat Tabarka Setif Batna Bejaia Jendouba Tebessa Bizerte Biskra Tunis-Carthage Bou-Saada Kairouan Cagliari / Elmas Decimomannu Gafsa Capo Carbonara Dar-El-Beida Capo Frasca Tozeur Habib Bourguiba

Om een weerknop op uw website of weblog te plaatsen, copieer onderstaande code en plak die in uw pagina. In het eerste vakje staat HTML-code, in het tweede vakje UBB-code.


Add to Google

Details

Wind speed:3 bf, 8 kn, 4.1 m/s, 9.2 miles/h, 14.8 km/h
Wind direction:NNW, 330°
Visibility:Greater than 10000 m, 10 km, 32800 ft, 6.2 miles
Clouds:Ein wenig bewölkt at 3000 ft, 914 m
Durchbrochene Bewölkung at 10000 ft, 3048 m
Temperature:20°C, 68°F
Dew-point:15°C, 59°F
Atmospheric pressure:1012 hPa, 759.1 mmHg, 29.88 inHg, 0.999 atm
Relative humidity:72.9 %
METAR:DABP 251300Z 33008KT 9999 FEW030 BKN100 20/15 Q1012

Snelkoppelingen

Actuele weersinformatie van de hele wereld. Voeg locaties toe met het plus (+) symbool. Deze snelkoppelingen kunnen worden toegevoegd aan Google.

Lid van de Technetium groep

website free tracking
StatCounter NetStat W3C Validator

25-09-2022 12:28:28
astro.technetium.be money.technetium.be phote.technetium.be tafeltennistafel.technetium.be www.ligfiets.net